Main page
METAR-TAF:

METAR-TAF

Airports :

Fujairah, United Arab Emirates

Fujairah International Airport

latitude: 25-06N, longitude: 056-20E, elevation: 28 m

Current weather observation

The report was made 16 minutes ago, at 14:13 UTC
Wind 30 kt from the West with gusts up to 41 kt
Temperature 20°C
Humidity 43%
Pressure 1014 hPa
Visibility: 3000 m
Blowing dust

METAR: OMFJ 211413Z 28030G41KT 3000 BLDU NSC 20/07 Q1014 RMK A2996

Time: 18:29 (14:29 UTC)

Forecast

The report was made 3 hours and 29 minutes ago, at 11:00 UTC
Forecast valid from 21 at 12 UTC to 22 at 18 UTC
Wind 18 kt from the West
Visibility: 5000 m
Few clouds at a height of 3000 ft
Blowing dust
Temporary
from 21 at 12 UTC to 21 at 22 UTC
Wind 22 kt from the West/Northwest with gusts up to 35 kt
Visibility: 2000 m
Blowing dust
Becoming
from 22 at 07 UTC to 22 at 09 UTC
Wind 12 kt from the Northeast
Visibility: 7000 m

TAF: OMFJ 211100Z 2112/2218 28018KT 5000 BLDU FEW030 TEMPO 2112/2122 30022G35KT 2000 BLDU BECMG 2207/2209 05012KT 7000

Weather observations and forecasts of more than 4000 airports (METAR and TAF reports).

The available stations are represented by yellow and red dots on the map.

Hover mouse over dot to see the name of the station.

Then click to see weather observations and forecasts.

To change the map : click on the green buttons with a black cross to zoom in, on the green button with a dash to zoom out, or on the green arrows for adjacent maps.


METAR-TAF: